Time;durP1;ratioP1;P1;durP2;ratioP2;P2;SDS_P1;SDS_P2;PMS_P1;PMS_P2;Temp;Humidity;BMP_temperature;BMP_pressure;BME280_temperature;BME280_humidity;BME280_pressure;Samples;Min_cycle;Max_cycle;Signal;HPM_P1;HPM_P2
2024/04/07 00:00:24;;;;;;;13.17;12.77;;;;;;;;;;5072016;28;20463;-73
2024/04/07 00:02:51;;;;;;;12.43;12.13;;;;;;;;;;5072189;28;20590;-73
2024/04/07 00:05:18;;;;;;;13.33;12.93;;;;;;;;;;5074200;28;20848;-72
2024/04/07 00:07:45;;;;;;;13.77;13.37;;;;;;;;;;5071734;28;20535;-72
2024/04/07 00:10:13;;;;;;;13.27;12.87;;;;;;;;;;5072037;28;20945;-72
2024/04/07 00:12:40;;;;;;;13.40;13.00;;;;;;;;;;5071809;28;20515;-73
2024/04/07 00:15:07;;;;;;;12.70;12.40;;;;;;;;;;5072383;28;21099;-72
2024/04/07 00:17:34;;;;;;;12.43;12.13;;;;;;;;;;5072330;28;21051;-74
2024/04/07 00:20:00;;;;;;;13.20;12.80;;;;;;;;;;5071038;28;20486;-72
2024/04/07 00:22:27;;;;;;;13.20;12.80;;;;;;;;;;5071428;28;20489;-70
2024/04/07 00:24:54;;;;;;;12.50;12.20;;;;;;;;;;5074027;28;21025;-71
2024/04/07 00:27:26;;;;;;;13.47;13.07;;;;;;;;;;5073251;28;20550;-71
2024/04/07 00:29:52;;;;;;;12.83;12.50;;;;;;;;;;5072984;28;20587;-71
2024/04/07 00:32:20;;;;;;;12.40;12.10;;;;;;;;;;5072405;28;20527;-71
2024/04/07 00:34:48;;;;;;;13.10;12.70;;;;;;;;;;5071559;28;20976;-72
2024/04/07 00:37:16;;;;;;;13.93;13.53;;;;;;;;;;5072540;28;20851;-72
2024/04/07 00:39:42;;;;;;;13.60;13.20;;;;;;;;;;5072626;28;20790;-71
2024/04/07 00:42:12;;;;;;;12.70;12.40;;;;;;;;;;5071274;28;20473;-73
2024/04/07 00:44:45;;;;;;;13.47;13.07;;;;;;;;;;5072017;28;21099;-71
2024/04/07 00:47:15;;;;;;;12.60;12.30;;;;;;;;;;5073364;28;20526;-71
2024/04/07 00:49:45;;;;;;;12.83;12.53;;;;;;;;;;5072246;28;20459;-71
2024/04/07 00:52:13;;;;;;;13.17;12.80;;;;;;;;;;5071888;28;20484;-73
2024/04/07 00:54:41;;;;;;;13.60;13.20;;;;;;;;;;5071849;28;20475;-71
2024/04/07 00:57:10;;;;;;;13.30;12.90;;;;;;;;;;5073161;28;20466;-70
2024/04/07 00:59:43;;;;;;;13.53;13.13;;;;;;;;;;5103586;28;20471;-71
2024/04/07 01:02:14;;;;;;;13.20;12.80;;;;;;;;;;5101488;28;20489;-71
2024/04/07 01:04:40;;;;;;;13.37;12.97;;;;;;;;;;5099297;28;20469;-70
2024/04/07 01:07:07;;;;;;;12.70;12.40;;;;;;;;;;5105887;28;20490;-71
2024/04/07 01:09:33;;;;;;;12.60;12.30;;;;;;;;;;5108751;28;21049;-71
2024/04/07 01:12:01;;;;;;;13.30;12.90;;;;;;;;;;5107503;28;20461;-73
2024/04/07 01:14:27;;;;;;;12.87;12.57;;;;;;;;;;5103596;28;20503;-71
2024/04/07 01:16:54;;;;;;;12.77;12.47;;;;;;;;;;5109458;28;20457;-74
2024/04/07 01:19:21;;;;;;;12.83;12.53;;;;;;;;;;5109304;28;20469;-72
2024/04/07 01:21:48;;;;;;;13.00;12.70;;;;;;;;;;5108186;28;20517;-72
2024/04/07 01:24:16;;;;;;;13.40;13.00;;;;;;;;;;5105293;28;20456;-72
2024/04/07 01:26:43;;;;;;;13.63;13.23;;;;;;;;;;5106260;28;20481;-74
2024/04/07 01:29:10;;;;;;;13.43;13.03;;;;;;;;;;5099212;28;20518;-73
2024/04/07 01:31:37;;;;;;;13.77;13.37;;;;;;;;;;5109632;28;20470;-72
2024/04/07 01:34:04;;;;;;;14.13;13.73;;;;;;;;;;5103522;28;20472;-69
2024/04/07 01:36:32;;;;;;;13.53;13.13;;;;;;;;;;5104286;28;20473;-70
2024/04/07 01:38:58;;;;;;;13.57;13.17;;;;;;;;;;5105124;28;20450;-74
2024/04/07 01:41:27;;;;;;;13.47;13.07;;;;;;;;;;5097338;28;20829;-72
2024/04/07 01:43:53;;;;;;;13.03;12.67;;;;;;;;;;5108553;28;20842;-73
2024/04/07 01:46:22;;;;;;;13.50;13.10;;;;;;;;;;5105655;28;20456;-73
2024/04/07 01:48:48;;;;;;;13.50;13.10;;;;;;;;;;5099211;28;20455;-72
2024/04/07 01:51:16;;;;;;;13.53;13.13;;;;;;;;;;5101856;28;20454;-72
2024/04/07 01:53:42;;;;;;;13.60;13.20;;;;;;;;;;5103082;28;20817;-72
2024/04/07 01:56:09;;;;;;;13.00;12.70;;;;;;;;;;5108882;28;20470;-71
2024/04/07 01:58:39;;;;;;;13.20;12.80;;;;;;;;;;5113681;28;20840;-72
2024/04/07 02:01:06;;;;;;;13.30;12.90;;;;;;;;;;5109702;28;20454;-72
2024/04/07 02:03:33;;;;;;;13.17;12.83;;;;;;;;;;5103584;28;20463;-71
2024/04/07 02:06:01;;;;;;;12.80;12.50;;;;;;;;;;5110068;28;20876;-74
2024/04/07 02:08:27;;;;;;;13.00;12.70;;;;;;;;;;5109223;28;20500;-73
2024/04/07 02:10:55;;;;;;;12.90;12.60;;;;;;;;;;5110780;28;20472;-72
2024/04/07 02:13:22;;;;;;;12.70;12.40;;;;;;;;;;5107022;28;20908;-72
2024/04/07 02:15:51;;;;;;;13.40;13.00;;;;;;;;;;5112324;28;20516;-72
2024/04/07 02:18:19;;;;;;;12.70;12.40;;;;;;;;;;5113054;28;20451;-72
2024/04/07 02:20:53;;;;;;;12.50;12.20;;;;;;;;;;5108972;28;20969;-71
2024/04/07 02:23:19;;;;;;;12.70;12.40;;;;;;;;;;5108501;28;21014;-72
2024/04/07 02:25:47;;;;;;;13.17;12.77;;;;;;;;;;5110637;28;20889;-72
2024/04/07 02:28:14;;;;;;;12.20;11.90;;;;;;;;;;5101719;28;20641;-72
2024/04/07 02:30:42;;;;;;;12.80;12.50;;;;;;;;;;5112790;28;20453;-72
2024/04/07 02:33:09;;;;;;;12.00;11.70;;;;;;;;;;5112492;28;20518;-71
2024/04/07 02:35:37;;;;;;;12.40;12.10;;;;;;;;;;5104612;28;20476;-72
2024/04/07 02:38:03;;;;;;;11.83;11.53;;;;;;;;;;5112448;28;20527;-72
2024/04/07 02:40:30;;;;;;;12.07;11.77;;;;;;;;;;5108985;28;20473;-72
2024/04/07 02:42:59;;;;;;;12.40;12.10;;;;;;;;;;5100285;28;20466;-72
2024/04/07 02:48:13;;;;;;;12.50;12.20;;;;;;;;;;5112093;28;20496;-72
2024/04/07 02:50:39;;;;;;;12.00;11.70;;;;;;;;;;5101391;28;21134;-74
2024/04/07 02:53:07;;;;;;;11.60;11.30;;;;;;;;;;5104660;28;20924;-73
2024/04/07 02:55:34;;;;;;;11.90;11.60;;;;;;;;;;5111082;28;20462;-71
2024/04/07 02:58:01;;;;;;;12.90;12.57;;;;;;;;;;5108444;28;20465;-73
2024/04/07 03:00:28;;;;;;;12.30;12.00;;;;;;;;;;5100901;28;20523;-72
2024/04/07 03:02:54;;;;;;;12.13;11.83;;;;;;;;;;5107789;28;20464;-72
2024/04/07 03:05:22;;;;;;;11.60;11.30;;;;;;;;;;5103369;28;20459;-72
2024/04/07 03:07:50;;;;;;;11.50;11.20;;;;;;;;;;5102438;28;20468;-72
2024/04/07 03:10:20;;;;;;;10.97;10.77;;;;;;;;;;5106714;28;20469;-72
2024/04/07 03:12:46;;;;;;;11.53;11.23;;;;;;;;;;5105956;28;20494;-72
2024/04/07 03:15:13;;;;;;;11.70;11.40;;;;;;;;;;5109249;28;20523;-72
2024/04/07 03:17:40;;;;;;;11.30;11.00;;;;;;;;;;5103572;28;20476;-72
2024/04/07 03:20:08;;;;;;;11.30;11.00;;;;;;;;;;5103213;28;20528;-72
2024/04/07 03:22:35;;;;;;;10.93;10.73;;;;;;;;;;5107215;28;20467;-72
2024/04/07 03:25:02;;;;;;;10.73;10.53;;;;;;;;;;5103106;28;20489;-74
2024/04/07 03:27:28;;;;;;;11.40;11.10;;;;;;;;;;5104264;28;20491;-74
2024/04/07 03:29:56;;;;;;;11.33;11.03;;;;;;;;;;5102640;28;20556;-73
2024/04/07 03:32:22;;;;;;;11.37;11.07;;;;;;;;;;5100642;28;20480;-72
2024/04/07 03:34:49;;;;;;;11.27;11.00;;;;;;;;;;5105515;28;20466;-72
2024/04/07 03:37:16;;;;;;;10.80;10.60;;;;;;;;;;5109832;28;20801;-72
2024/04/07 03:39:44;;;;;;;11.43;11.13;;;;;;;;;;5105205;28;20466;-73
2024/04/07 03:42:12;;;;;;;11.07;10.87;;;;;;;;;;5100070;28;20470;-72
2024/04/07 03:44:39;;;;;;;11.10;10.90;;;;;;;;;;5106202;28;20466;-73
2024/04/07 03:47:07;;;;;;;11.40;11.10;;;;;;;;;;5097122;28;20548;-72
2024/04/07 03:49:34;;;;;;;11.33;11.03;;;;;;;;;;5104819;28;20971;-72
2024/04/07 03:52:01;;;;;;;11.17;10.90;;;;;;;;;;5111065;28;20456;-72
2024/04/07 03:54:27;;;;;;;11.87;11.57;;;;;;;;;;5107257;28;20560;-72
2024/04/07 03:56:56;;;;;;;11.00;10.80;;;;;;;;;;5104182;28;20466;-72
2024/04/07 03:59:22;;;;;;;11.50;11.20;;;;;;;;;;5102487;28;20455;-72
2024/04/07 04:01:49;;;;;;;11.13;10.93;;;;;;;;;;5101522;28;20984;-71
2024/04/07 04:04:16;;;;;;;11.40;11.10;;;;;;;;;;5106125;28;20466;-72
2024/04/07 04:06:43;;;;;;;11.27;11.03;;;;;;;;;;5105849;28;20551;-72
2024/04/07 04:09:09;;;;;;;11.10;10.90;;;;;;;;;;5102808;28;21029;-71
2024/04/07 04:11:36;;;;;;;11.27;10.97;;;;;;;;;;5103902;28;20496;-71
2024/04/07 04:14:04;;;;;;;10.93;10.73;;;;;;;;;;5100332;28;20495;-73
2024/04/07 04:16:31;;;;;;;11.27;10.97;;;;;;;;;;5109913;28;20458;-72
2024/04/07 04:18:57;;;;;;;11.00;10.80;;;;;;;;;;5109982;28;20474;-71
2024/04/07 04:21:24;;;;;;;11.00;10.80;;;;;;;;;;5100354;28;20864;-73
2024/04/07 04:23:51;;;;;;;11.57;11.27;;;;;;;;;;5104274;28;20568;-72
2024/04/07 04:26:18;;;;;;;11.57;11.27;;;;;;;;;;5100756;28;20560;-71
2024/04/07 04:28:44;;;;;;;11.10;10.90;;;;;;;;;;5103181;28;20946;-74
2024/04/07 04:31:13;;;;;;;11.30;11.00;;;;;;;;;;5106248;28;20464;-74
2024/04/07 04:33:39;;;;;;;11.37;11.07;;;;;;;;;;5099027;28;20470;-72
2024/04/07 04:36:12;;;;;;;11.60;11.30;;;;;;;;;;5097419;28;20554;-72
2024/04/07 04:38:39;;;;;;;11.40;11.10;;;;;;;;;;5094656;28;20467;-72
2024/04/07 04:41:07;;;;;;;11.80;11.50;;;;;;;;;;5102026;28;20850;-72
2024/04/07 04:43:33;;;;;;;12.23;11.93;;;;;;;;;;5101816;28;20462;-72
2024/04/07 04:46:03;;;;;;;11.70;11.40;;;;;;;;;;5102130;28;20824;-73
2024/04/07 04:48:30;;;;;;;10.40;10.20;;;;;;;;;;5101233;28;20494;-71
2024/04/07 04:50:57;;;;;;;11.20;10.93;;;;;;;;;;5109579;28;20495;-71
2024/04/07 04:53:24;;;;;;;11.33;11.03;;;;;;;;;;5104701;28;20458;-72
2024/04/07 04:55:52;;;;;;;11.00;10.80;;;;;;;;;;5101336;28;20455;-72
2024/04/07 04:58:19;;;;;;;11.10;10.90;;;;;;;;;;5106748;28;20847;-72
2024/04/07 05:00:46;;;;;;;10.67;10.47;;;;;;;;;;5105659;28;20497;-72
2024/04/07 05:03:13;;;;;;;11.00;10.80;;;;;;;;;;5104885;28;20461;-72
2024/04/07 05:05:41;;;;;;;11.47;11.17;;;;;;;;;;5105529;28;20459;-72
2024/04/07 05:08:08;;;;;;;11.60;11.30;;;;;;;;;;5108522;28;20494;-73
2024/04/07 05:10:35;;;;;;;10.87;10.67;;;;;;;;;;5107846;28;20470;-72
2024/04/07 05:13:02;;;;;;;11.47;11.17;;;;;;;;;;5100210;28;20516;-72
2024/04/07 05:15:29;;;;;;;11.13;10.87;;;;;;;;;;5105183;28;20568;-72
2024/04/07 05:17:55;;;;;;;11.33;11.03;;;;;;;;;;5108239;28;20578;-73
2024/04/07 05:20:22;;;;;;;11.70;11.40;;;;;;;;;;5106332;28;20454;-72
2024/04/07 05:22:51;;;;;;;11.67;11.37;;;;;;;;;;5108465;28;20825;-72
2024/04/07 05:25:18;;;;;;;11.90;11.60;;;;;;;;;;5100355;28;20457;-72
2024/04/07 05:27:44;;;;;;;11.67;11.37;;;;;;;;;;5103416;28;20536;-70
2024/04/07 05:30:11;;;;;;;11.70;11.40;;;;;;;;;;5103743;28;20461;-71
2024/04/07 05:32:38;;;;;;;11.73;11.43;;;;;;;;;;5107731;28;20859;-71
2024/04/07 05:35:08;;;;;;;11.50;11.20;;;;;;;;;;5104652;28;20581;-72
2024/04/07 05:37:34;;;;;;;11.67;11.37;;;;;;;;;;5107858;28;20476;-71
2024/04/07 05:40:05;;;;;;;11.40;11.10;;;;;;;;;;5100273;28;20551;-70
2024/04/07 05:42:31;;;;;;;11.50;11.20;;;;;;;;;;5095131;28;20462;-71
2024/04/07 05:44:59;;;;;;;11.40;11.10;;;;;;;;;;5099877;28;20515;-70
2024/04/07 05:47:25;;;;;;;11.33;11.03;;;;;;;;;;5101843;28;20878;-73
2024/04/07 05:49:52;;;;;;;11.70;11.40;;;;;;;;;;5100373;28;20542;-71
2024/04/07 05:52:20;;;;;;;11.70;11.40;;;;;;;;;;5096680;28;20470;-71
2024/04/07 05:54:47;;;;;;;12.00;11.70;;;;;;;;;;5101462;28;20866;-72
2024/04/07 05:57:15;;;;;;;11.40;11.10;;;;;;;;;;5108236;28;20450;-71
2024/04/07 05:59:48;;;;;;;11.33;11.03;;;;;;;;;;5101123;28;20484;-72
2024/04/07 06:02:14;;;;;;;11.40;11.10;;;;;;;;;;5107783;28;20488;-70
2024/04/07 06:04:42;;;;;;;11.30;11.00;;;;;;;;;;5108818;28;20471;-71
2024/04/07 06:07:08;;;;;;;10.73;10.53;;;;;;;;;;5101299;28;20478;-71
2024/04/07 06:09:35;;;;;;;10.77;10.57;;;;;;;;;;5101548;28;20576;-71
2024/04/07 06:12:04;;;;;;;10.57;10.37;;;;;;;;;;5107149;28;20463;-71
2024/04/07 06:14:32;;;;;;;10.40;10.20;;;;;;;;;;5101125;28;20483;-71
2024/04/07 06:16:58;;;;;;;10.80;10.60;;;;;;;;;;5103674;28;20475;-73
2024/04/07 06:19:25;;;;;;;10.90;10.70;;;;;;;;;;5093454;28;22510;-72
2024/04/07 06:21:52;;;;;;;10.93;10.73;;;;;;;;;;5099676;28;20481;-72
2024/04/07 06:24:19;;;;;;;11.70;11.40;;;;;;;;;;5101536;28;20515;-72
2024/04/07 06:26:46;;;;;;;11.60;11.30;;;;;;;;;;5102396;28;20458;-72
2024/04/07 06:29:13;;;;;;;11.77;11.47;;;;;;;;;;5091424;28;20499;-72
2024/04/07 06:31:44;;;;;;;12.00;11.70;;;;;;;;;;5102353;28;20465;-72
2024/04/07 06:34:11;;;;;;;12.00;11.70;;;;;;;;;;5095598;28;20494;-73
2024/04/07 06:36:37;;;;;;;11.20;10.90;;;;;;;;;;5099327;28;20477;-72
2024/04/07 06:39:11;;;;;;;11.40;11.10;;;;;;;;;;5107322;28;21056;-72
2024/04/07 06:41:37;;;;;;;11.00;10.80;;;;;;;;;;5108863;28;20545;-73
2024/04/07 06:44:04;;;;;;;11.03;10.80;;;;;;;;;;5101362;28;20854;-72
2024/04/07 06:46:31;;;;;;;11.40;11.10;;;;;;;;;;5111077;28;20460;-72
2024/04/07 06:48:59;;;;;;;11.70;11.40;;;;;;;;;;5107661;28;20497;-73
2024/04/07 06:51:28;;;;;;;10.90;10.70;;;;;;;;;;5096775;28;20826;-74
2024/04/07 06:53:55;;;;;;;10.70;10.50;;;;;;;;;;5106540;28;20952;-72
2024/04/07 06:56:21;;;;;;;11.40;11.10;;;;;;;;;;5106191;28;20868;-72
2024/04/07 06:58:48;;;;;;;11.53;11.23;;;;;;;;;;5106989;28;20471;-72
2024/04/07 07:01:14;;;;;;;11.50;11.20;;;;;;;;;;5107028;28;20596;-73
2024/04/07 07:03:41;;;;;;;11.53;11.23;;;;;;;;;;5100733;28;20557;-72
2024/04/07 07:06:11;;;;;;;11.77;11.47;;;;;;;;;;5108557;28;20475;-72
2024/04/07 07:08:38;;;;;;;11.20;10.90;;;;;;;;;;5107593;28;20478;-72
2024/04/07 07:11:07;;;;;;;10.90;10.70;;;;;;;;;;5104123;28;20467;-73
2024/04/07 07:13:40;;;;;;;10.70;10.50;;;;;;;;;;5103221;28;20484;-72
2024/04/07 07:16:06;;;;;;;11.20;10.90;;;;;;;;;;5083578;28;20463;-73
2024/04/07 07:18:33;;;;;;;11.40;11.10;;;;;;;;;;5084653;28;20464;-70
2024/04/07 07:21:00;;;;;;;11.00;10.80;;;;;;;;;;5101705;28;20959;-72
2024/04/07 07:23:29;;;;;;;11.47;11.17;;;;;;;;;;5097124;28;20958;-73
2024/04/07 07:25:55;;;;;;;11.10;10.80;;;;;;;;;;5082317;28;20469;-71
2024/04/07 07:28:24;;;;;;;11.33;11.03;;;;;;;;;;5077104;28;20832;-73
2024/04/07 07:30:50;;;;;;;10.77;10.57;;;;;;;;;;5079027;28;20491;-73
2024/04/07 07:33:17;;;;;;;11.30;11.00;;;;;;;;;;5090232;28;20893;-72
2024/04/07 07:35:43;;;;;;;11.50;11.20;;;;;;;;;;5093534;28;20455;-72
2024/04/07 07:38:11;;;;;;;11.00;10.80;;;;;;;;;;5096679;28;20459;-73
2024/04/07 07:40:38;;;;;;;11.30;11.00;;;;;;;;;;5083873;28;20482;-72
2024/04/07 07:43:05;;;;;;;11.43;11.13;;;;;;;;;;5089094;28;20528;-72
2024/04/07 07:45:31;;;;;;;11.40;11.10;;;;;;;;;;5086418;28;20976;-71
2024/04/07 07:48:03;;;;;;;11.00;10.80;;;;;;;;;;5093005;28;20489;-70
2024/04/07 07:50:31;;;;;;;11.40;11.10;;;;;;;;;;5076053;28;20977;-71
2024/04/07 07:52:59;;;;;;;11.37;11.07;;;;;;;;;;5084320;28;20452;-72
2024/04/07 07:55:25;;;;;;;12.10;11.80;;;;;;;;;;5079400;28;20472;-71
2024/04/07 07:57:57;;;;;;;12.00;11.70;;;;;;;;;;5087890;28;20457;-72
2024/04/07 08:00:23;;;;;;;12.00;11.70;;;;;;;;;;5084069;28;20489;-72
2024/04/07 08:02:52;;;;;;;11.40;11.10;;;;;;;;;;5091589;28;21011;-72
2024/04/07 08:05:18;;;;;;;11.70;11.40;;;;;;;;;;5089795;28;20470;-72
2024/04/07 08:07:45;;;;;;;11.30;11.00;;;;;;;;;;5085718;28;20493;-71
2024/04/07 08:10:21;;;;;;;11.40;11.10;;;;;;;;;;5098614;28;20459;-72
2024/04/07 08:12:49;;;;;;;11.80;11.50;;;;;;;;;;5075053;28;20493;-72
2024/04/07 08:15:16;;;;;;;11.43;11.13;;;;;;;;;;5084116;28;21430;-72
2024/04/07 08:17:45;;;;;;;11.13;10.87;;;;;;;;;;5085607;28;20884;-71
2024/04/07 08:20:12;;;;;;;11.67;11.37;;;;;;;;;;5084355;28;20455;-70
2024/04/07 08:22:39;;;;;;;11.70;11.40;;;;;;;;;;5087343;28;20884;-71
2024/04/07 08:25:07;;;;;;;12.00;11.70;;;;;;;;;;5074925;28;20474;-71
2024/04/07 08:27:37;;;;;;;11.83;11.53;;;;;;;;;;5075988;28;20849;-71
2024/04/07 08:30:04;;;;;;;12.60;12.30;;;;;;;;;;5079456;28;20488;-71
2024/04/07 08:32:32;;;;;;;12.80;12.47;;;;;;;;;;5080665;28;20471;-70
2024/04/07 08:34:59;;;;;;;12.17;11.87;;;;;;;;;;5084994;28;20459;-72
2024/04/07 08:37:26;;;;;;;12.00;11.70;;;;;;;;;;5092017;28;20467;-72
2024/04/07 08:39:52;;;;;;;12.50;12.20;;;;;;;;;;5086573;28;20461;-71
2024/04/07 08:42:22;;;;;;;12.10;11.80;;;;;;;;;;5080032;28;20568;-73
2024/04/07 08:44:52;;;;;;;12.37;12.07;;;;;;;;;;5074660;28;20468;-71
2024/04/07 08:47:20;;;;;;;12.43;12.13;;;;;;;;;;5086151;28;20473;-71
2024/04/07 08:49:51;;;;;;;12.87;12.50;;;;;;;;;;5086958;28;20491;-73
2024/04/07 08:52:20;;;;;;;12.90;12.50;;;;;;;;;;5083580;28;20497;-72
2024/04/07 08:54:59;;;;;;;13.10;12.70;;;;;;;;;;5086537;28;20546;-72
2024/04/07 08:57:25;;;;;;;13.20;12.80;;;;;;;;;;5086373;28;20935;-72
2024/04/07 08:59:53;;;;;;;13.30;12.90;;;;;;;;;;5080516;28;20470;-72
2024/04/07 09:02:20;;;;;;;13.40;13.00;;;;;;;;;;5081043;28;20465;-72
2024/04/07 09:04:49;;;;;;;12.60;12.30;;;;;;;;;;5078382;28;20467;-71
2024/04/07 09:07:15;;;;;;;13.00;12.60;;;;;;;;;;5086575;28;20550;-71
2024/04/07 09:09:43;;;;;;;13.50;13.10;;;;;;;;;;5082356;28;20491;-71
2024/04/07 09:12:10;;;;;;;12.70;12.40;;;;;;;;;;5085852;28;20999;-71
2024/04/07 09:14:39;;;;;;;13.20;12.80;;;;;;;;;;5082433;28;20491;-73
2024/04/07 09:17:05;;;;;;;13.37;12.97;;;;;;;;;;5083783;28;20852;-73
2024/04/07 09:19:33;;;;;;;12.80;12.50;;;;;;;;;;5072828;28;20469;-71
2024/04/07 09:22:02;;;;;;;13.20;12.80;;;;;;;;;;5073940;28;20467;-72
2024/04/07 09:24:30;;;;;;;13.13;12.73;;;;;;;;;;5080257;28;20492;-71
2024/04/07 09:26:57;;;;;;;12.67;12.37;;;;;;;;;;5078778;28;20921;-73
2024/04/07 09:29:24;;;;;;;13.20;12.80;;;;;;;;;;5078076;28;20498;-71
2024/04/07 09:31:51;;;;;;;12.97;12.60;;;;;;;;;;5075481;28;20472;-71
2024/04/07 09:34:18;;;;;;;13.20;12.80;;;;;;;;;;5078513;28;20556;-72
2024/04/07 09:36:44;;;;;;;12.73;12.43;;;;;;;;;;5082201;28;20832;-71
2024/04/07 09:39:13;;;;;;;12.70;12.40;;;;;;;;;;5080461;28;20462;-69
2024/04/07 09:41:40;;;;;;;13.10;12.70;;;;;;;;;;5080320;28;20452;-72
2024/04/07 09:44:07;;;;;;;12.97;12.60;;;;;;;;;;5072466;28;20467;-70
2024/04/07 09:46:39;;;;;;;13.23;12.83;;;;;;;;;;5071893;28;20944;-71
2024/04/07 09:49:08;;;;;;;14.07;13.67;;;;;;;;;;5079916;28;20513;-72
2024/04/07 09:51:39;;;;;;;13.33;12.93;;;;;;;;;;5083312;28;20472;-71
2024/04/07 09:54:12;;;;;;;13.63;13.23;;;;;;;;;;5076075;28;20546;-70
2024/04/07 09:56:41;;;;;;;12.70;12.40;;;;;;;;;;5080354;28;20492;-71
2024/04/07 09:59:09;;;;;;;13.87;13.47;;;;;;;;;;5081133;28;20460;-71
2024/04/07 10:01:35;;;;;;;13.70;13.30;;;;;;;;;;5082181;28;20466;-70
2024/04/07 10:04:03;;;;;;;13.50;13.10;;;;;;;;;;5084679;28;20956;-70
2024/04/07 10:06:30;;;;;;;13.50;13.10;;;;;;;;;;5080934;28;20462;-70
2024/04/07 10:08:58;;;;;;;13.60;13.20;;;;;;;;;;5074711;28;20482;-70
2024/04/07 10:11:24;;;;;;;13.43;13.03;;;;;;;;;;5078263;28;20468;-71
2024/04/07 10:13:53;;;;;;;13.07;12.67;;;;;;;;;;5076090;28;20476;-71
2024/04/07 10:16:19;;;;;;;13.20;12.80;;;;;;;;;;5097406;28;20460;-71
2024/04/07 10:18:47;;;;;;;13.40;13.00;;;;;;;;;;5096334;28;20463;-70
2024/04/07 10:21:14;;;;;;;13.30;12.90;;;;;;;;;;5108920;28;20455;-71
2024/04/07 10:23:42;;;;;;;13.40;13.00;;;;;;;;;;5101418;28;20454;-71
2024/04/07 10:26:09;;;;;;;12.90;12.50;;;;;;;;;;5098456;28;20524;-71
2024/04/07 10:28:46;;;;;;;13.30;12.90;;;;;;;;;;5088315;27;20487;-70
2024/04/07 10:31:16;;;;;;;13.90;13.50;;;;;;;;;;5097937;28;20482;-74
2024/04/07 10:33:43;;;;;;;13.17;12.77;;;;;;;;;;5102674;28;20846;-71
2024/04/07 10:36:15;;;;;;;13.53;13.13;;;;;;;;;;5108280;28;20461;-73
2024/04/07 10:38:47;;;;;;;13.63;13.23;;;;;;;;;;5099801;28;20916;-75
2024/04/07 10:41:17;;;;;;;13.60;13.20;;;;;;;;;;5105373;28;20458;-72
2024/04/07 10:43:45;;;;;;;13.90;13.50;;;;;;;;;;5110169;28;20948;-72
2024/04/07 10:46:11;;;;;;;13.70;13.30;;;;;;;;;;5101958;28;20780;-70
2024/04/07 10:48:40;;;;;;;13.97;13.57;;;;;;;;;;5101159;28;20486;-71
2024/04/07 10:51:09;;;;;;;14.30;13.90;;;;;;;;;;5105140;28;20469;-70
2024/04/07 10:53:36;;;;;;;13.40;13.00;;;;;;;;;;5109891;28;20555;-70
2024/04/07 10:56:03;;;;;;;13.50;13.10;;;;;;;;;;5102616;28;20457;-72
2024/04/07 10:58:30;;;;;;;13.90;13.50;;;;;;;;;;5109348;28;20844;-71
2024/04/07 11:00:56;;;;;;;14.27;13.77;;;;;;;;;;5109662;28;20458;-70
2024/04/07 11:03:23;;;;;;;14.00;13.50;;;;;;;;;;5105754;28;20463;-71
2024/04/07 11:05:51;;;;;;;14.20;13.70;;;;;;;;;;5105099;28;20463;-70
2024/04/07 11:08:19;;;;;;;13.40;13.00;;;;;;;;;;5106547;28;20466;-70
2024/04/07 11:10:50;;;;;;;13.70;13.30;;;;;;;;;;5106006;28;20490;-69
2024/04/07 11:13:19;;;;;;;13.77;13.37;;;;;;;;;;5103945;28;21025;-71
2024/04/07 11:15:45;;;;;;;14.27;13.87;;;;;;;;;;5104625;28;20951;-71
2024/04/07 11:18:16;;;;;;;14.27;13.87;;;;;;;;;;5109104;28;20464;-70
2024/04/07 11:20:42;;;;;;;14.07;13.67;;;;;;;;;;5099740;28;20492;-70
2024/04/07 11:23:11;;;;;;;13.70;13.30;;;;;;;;;;5105412;28;20480;-73
2024/04/07 11:25:40;;;;;;;13.70;13.30;;;;;;;;;;5108684;28;20446;-71
2024/04/07 11:28:09;;;;;;;13.90;13.50;;;;;;;;;;5098752;28;20890;-70
2024/04/07 11:30:36;;;;;;;13.60;13.20;;;;;;;;;;5108347;28;20565;-70
2024/04/07 11:33:05;;;;;;;14.03;13.63;;;;;;;;;;5108695;28;20551;-70
2024/04/07 11:35:32;;;;;;;14.30;13.83;;;;;;;;;;5105521;28;20874;-72
2024/04/07 11:37:59;;;;;;;14.23;13.83;;;;;;;;;;5104051;28;20455;-72
2024/04/07 11:40:26;;;;;;;14.43;13.93;;;;;;;;;;5104775;28;20479;-71
2024/04/07 11:42:53;;;;;;;14.30;13.90;;;;;;;;;;5107196;28;20472;-71
2024/04/07 11:45:20;;;;;;;14.07;13.67;;;;;;;;;;5102239;28;20466;-72
2024/04/07 11:47:47;;;;;;;14.00;13.60;;;;;;;;;;5109409;28;20468;-71
2024/04/07 11:50:13;;;;;;;14.17;13.77;;;;;;;;;;5104423;28;20484;-71
2024/04/07 11:52:41;;;;;;;13.90;13.50;;;;;;;;;;5107051;28;20496;-71
2024/04/07 11:55:07;;;;;;;14.53;14.03;;;;;;;;;;5101036;28;20454;-70
2024/04/07 11:57:35;;;;;;;13.60;13.20;;;;;;;;;;5101251;28;20903;-72
2024/04/07 12:00:03;;;;;;;14.40;13.90;;;;;;;;;;5107209;28;20979;-71
2024/04/07 12:02:30;;;;;;;13.30;12.90;;;;;;;;;;5100194;28;20461;-70
2024/04/07 12:04:57;;;;;;;13.97;13.57;;;;;;;;;;5105549;28;20459;-71
2024/04/07 12:07:24;;;;;;;13.40;13.00;;;;;;;;;;5102378;28;20463;-70
2024/04/07 12:09:51;;;;;;;13.63;13.23;;;;;;;;;;5103571;28;21838;-71
2024/04/07 12:12:18;;;;;;;13.50;13.10;;;;;;;;;;5104600;28;20471;-71
2024/04/07 12:14:45;;;;;;;14.13;13.73;;;;;;;;;;5103708;28;20484;-71
2024/04/07 12:17:12;;;;;;;14.03;13.63;;;;;;;;;;5103508;28;20464;-71
2024/04/07 12:19:38;;;;;;;13.53;13.13;;;;;;;;;;5100447;28;20475;-72
2024/04/07 12:22:09;;;;;;;13.80;13.40;;;;;;;;;;5096962;28;20457;-70
2024/04/07 12:24:35;;;;;;;14.20;13.80;;;;;;;;;;5098418;28;20466;-71
2024/04/07 12:27:02;;;;;;;14.67;14.17;;;;;;;;;;5103763;28;20463;-71
2024/04/07 12:29:28;;;;;;;14.40;13.90;;;;;;;;;;5103170;27;20490;-72
2024/04/07 12:31:57;;;;;;;14.10;13.60;;;;;;;;;;5097906;27;21109;-71
2024/04/07 12:34:23;;;;;;;14.10;13.63;;;;;;;;;;5110575;27;20489;-72
2024/04/07 12:36:50;;;;;;;13.97;13.57;;;;;;;;;;5114431;27;20556;-71
2024/04/07 12:39:16;;;;;;;13.90;13.50;;;;;;;;;;5109914;27;20455;-70
2024/04/07 12:41:45;;;;;;;14.03;13.63;;;;;;;;;;5104363;27;20469;-72
2024/04/07 12:44:11;;;;;;;13.97;13.57;;;;;;;;;;5114111;27;20463;-71
2024/04/07 12:46:38;;;;;;;14.03;13.63;;;;;;;;;;5103670;27;20471;-71
2024/04/07 12:49:06;;;;;;;14.37;13.97;;;;;;;;;;5107200;27;20476;-70
2024/04/07 12:51:33;;;;;;;13.43;13.03;;;;;;;;;;5113521;27;20447;-71
2024/04/07 12:53:59;;;;;;;13.17;12.77;;;;;;;;;;5114874;27;20459;-70
2024/04/07 12:56:27;;;;;;;13.70;13.30;;;;;;;;;;5110360;27;20816;-71
2024/04/07 12:58:54;;;;;;;14.30;13.90;;;;;;;;;;5112840;27;20466;-70
2024/04/07 13:01:20;;;;;;;13.33;12.93;;;;;;;;;;5106321;27;21187;-71
2024/04/07 13:03:48;;;;;;;13.17;12.77;;;;;;;;;;5110445;27;20504;-70
2024/04/07 13:06:15;;;;;;;13.33;12.93;;;;;;;;;;5105416;27;20462;-70
2024/04/07 13:08:42;;;;;;;13.63;13.23;;;;;;;;;;5113300;27;20992;-71
2024/04/07 13:11:08;;;;;;;13.47;13.07;;;;;;;;;;5113290;27;21040;-70
2024/04/07 13:13:36;;;;;;;13.70;13.30;;;;;;;;;;5108999;27;20565;-71
2024/04/07 13:16:03;;;;;;;13.50;13.10;;;;;;;;;;5113936;27;20460;-72
2024/04/07 13:18:31;;;;;;;13.77;13.37;;;;;;;;;;5112956;27;20555;-70
2024/04/07 13:20:58;;;;;;;13.63;13.23;;;;;;;;;;5106033;27;21103;-71
2024/04/07 13:23:27;;;;;;;13.37;12.97;;;;;;;;;;5111678;27;20993;-72
2024/04/07 13:25:53;;;;;;;13.00;12.60;;;;;;;;;;5107325;27;20453;-71
2024/04/07 13:28:20;;;;;;;13.73;13.33;;;;;;;;;;5108059;27;20484;-70
2024/04/07 13:30:47;;;;;;;13.37;12.97;;;;;;;;;;5111257;27;20484;-71
2024/04/07 13:33:15;;;;;;;12.80;12.50;;;;;;;;;;5113636;27;20481;-72
2024/04/07 13:35:43;;;;;;;13.40;13.00;;;;;;;;;;5098012;27;20472;-71
2024/04/07 13:38:10;;;;;;;12.87;12.53;;;;;;;;;;5107161;27;20463;-70
2024/04/07 13:40:38;;;;;;;13.33;12.93;;;;;;;;;;5096891;27;20472;-71
2024/04/07 13:43:05;;;;;;;13.30;12.90;;;;;;;;;;5103066;28;20460;-70
2024/04/07 13:45:31;;;;;;;12.87;12.57;;;;;;;;;;5099481;28;20601;-70
2024/04/07 13:47:58;;;;;;;13.37;12.97;;;;;;;;;;5105436;28;20475;-70
2024/04/07 13:50:25;;;;;;;13.20;12.80;;;;;;;;;;5099234;28;20513;-71
2024/04/07 13:52:52;;;;;;;13.07;12.67;;;;;;;;;;5100801;28;20470;-70
2024/04/07 13:55:18;;;;;;;13.10;12.70;;;;;;;;;;5094026;28;20688;-70
2024/04/07 13:57:47;;;;;;;13.10;12.70;;;;;;;;;;5099875;28;21022;-71
2024/04/07 14:00:14;;;;;;;13.40;13.00;;;;;;;;;;5097296;28;20805;-71
2024/04/07 14:02:41;;;;;;;13.50;13.10;;;;;;;;;;5102426;28;20542;-70
2024/04/07 14:05:07;;;;;;;13.00;12.60;;;;;;;;;;5099079;28;20463;-70
2024/04/07 14:07:35;;;;;;;13.50;13.10;;;;;;;;;;5101014;28;20459;-71
2024/04/07 14:10:02;;;;;;;13.10;12.70;;;;;;;;;;5102538;28;20489;-70
2024/04/07 14:12:30;;;;;;;13.07;12.70;;;;;;;;;;5106750;28;20479;-70
2024/04/07 14:14:57;;;;;;;13.80;13.40;;;;;;;;;;5103048;28;21035;-71
2024/04/07 14:17:24;;;;;;;13.87;13.47;;;;;;;;;;5095968;28;20463;-70
2024/04/07 14:19:51;;;;;;;14.13;13.73;;;;;;;;;;5094129;28;20472;-70